Time;durP1;ratioP1;P1;durP2;ratioP2;P2;SDS_P1;SDS_P2;PMS_P1;PMS_P2;Temp;Humidity;BMP_temperature;BMP_pressure;BME280_temperature;BME280_humidity;BME280_pressure;Samples;Min_cycle;Max_cycle;Signal;HPM_P1;HPM_P2
2022/05/21 00:02:05;;;;;;;12.20;7.75;;;13.60;78.40;;;;;;5114819;28;20051;-68
2022/05/21 00:04:30;;;;;;;10.38;6.80;;;13.60;78.40;;;;;;5114858;28;20020;-68
2022/05/21 00:06:59;;;;;;;12.05;7.25;;;13.70;78.40;;;;;;5113757;28;20024;-68
2022/05/21 00:09:27;;;;;;;11.63;7.20;;;13.60;78.70;;;;;;5114759;28;20067;-69
2022/05/21 00:11:54;;;;;;;12.85;6.88;;;13.60;79.60;;;;;;5114701;28;20080;-68
2022/05/21 00:14:20;;;;;;;14.45;7.30;;;13.60;78.90;;;;;;5114680;28;20084;-69
2022/05/21 00:16:47;;;;;;;12.35;7.20;;;13.60;78.70;;;;;;5114621;28;20020;-68
2022/05/21 00:19:13;;;;;;;12.77;7.13;;;13.70;79.00;;;;;;5114576;28;20020;-69
2022/05/21 00:21:38;;;;;;;13.00;6.63;;;13.70;79.00;;;;;;5114374;28;20050;-69
2022/05/21 00:24:04;;;;;;;11.95;7.40;;;13.60;79.20;;;;;;5113993;28;20068;-69
2022/05/21 00:26:30;;;;;;;11.20;7.20;;;13.60;79.60;;;;;;5114449;28;20029;-69
2022/05/21 00:28:56;;;;;;;12.27;6.38;;;13.50;79.80;;;;;;5114307;28;20042;-69
2022/05/21 00:31:22;;;;;;;13.45;6.57;;;13.60;80.00;;;;;;5114326;28;20107;-69
2022/05/21 00:33:48;;;;;;;12.85;6.97;;;13.60;80.20;;;;;;5113369;28;20035;-69
2022/05/21 00:36:16;;;;;;;11.93;6.55;;;13.50;80.30;;;;;;5114278;28;20094;-69
2022/05/21 00:38:42;;;;;;;10.85;6.75;;;13.50;80.30;;;;;;5113227;28;20028;-69
2022/05/21 00:41:11;;;;;;;11.73;6.13;;;13.60;80.70;;;;;;5114193;28;20032;-69
2022/05/21 00:43:52;;;;;;;9.95;5.25;;;13.60;80.50;;;;;;5114043;28;20024;-69
2022/05/21 00:46:25;;;;;;;10.20;6.03;;;13.60;80.60;;;;;;5114115;28;20034;-69
2022/05/21 00:49:15;;;;;;;11.07;5.45;;;13.60;80.60;;;;;;5114034;28;20030;-69
2022/05/21 00:51:46;;;;;;;10.25;5.88;;;13.70;80.50;;;;;;5114036;28;20016;-69
2022/05/21 00:54:14;;;;;;;9.93;5.50;;;13.70;79.90;;;;;;5112963;28;20024;-69
2022/05/21 00:56:50;;;;;;;10.57;5.20;;;13.70;79.60;;;;;;5114022;28;20273;-69
2022/05/21 01:02:07;;;;;;;10.02;5.72;;;13.70;80.00;;;;;;5113991;28;20039;-69
2022/05/21 01:04:34;;;;;;;8.02;4.93;;;13.70;79.90;;;;;;5113854;28;20084;-69
2022/05/21 01:07:02;;;;;;;10.07;5.22;;;13.70;79.90;;;;;;5113741;28;20024;-69
2022/05/21 01:09:28;;;;;;;9.15;4.68;;;13.80;79.80;;;;;;5113571;28;20051;-69
2022/05/21 01:11:55;;;;;;;8.73;4.63;;;13.70;79.80;;;;;;5113678;28;20050;-69
2022/05/21 01:14:21;;;;;;;6.97;4.75;;;13.70;79.80;;;;;;5113618;28;20027;-69
2022/05/21 01:16:51;;;;;;;10.88;4.97;;;13.70;79.70;;;;;;5113141;28;20047;-69
2022/05/21 01:19:17;;;;;;;11.40;4.65;;;13.70;79.90;;;;;;5113567;28;20020;-69
2022/05/21 01:21:43;;;;;;;8.60;4.97;;;13.70;80.10;;;;;;5113447;28;20013;-69
2022/05/21 01:24:11;;;;;;;9.57;4.53;;;13.70;80.10;;;;;;5113283;28;20093;-70
2022/05/21 01:26:38;;;;;;;11.20;4.95;;;13.70;79.70;;;;;;5113547;28;20012;-69
2022/05/21 01:29:09;;;;;;;10.52;5.30;;;13.70;79.70;;;;;;5113378;28;20042;-69
2022/05/21 01:31:35;;;;;;;8.80;4.78;;;13.70;79.90;;;;;;5113473;28;20040;-69
2022/05/21 01:34:01;;;;;;;8.52;4.88;;;13.80;79.70;;;;;;5113392;28;20031;-69
2022/05/21 01:36:26;;;;;;;8.18;4.38;;;13.80;79.80;;;;;;5113305;28;20028;-69
2022/05/21 01:38:52;;;;;;;11.43;4.70;;;13.80;79.70;;;;;;5113343;28;20036;-69
2022/05/21 01:41:18;;;;;;;9.77;4.82;;;13.80;79.70;;;;;;5113355;28;20024;-69
2022/05/21 01:46:28;;;;;;;10.32;4.78;;;13.70;80.00;;;;;;5113597;28;20081;-69
2022/05/21 01:48:54;;;;;;;11.38;5.32;;;13.80;79.90;;;;;;5113275;28;20056;-69
2022/05/21 01:51:20;;;;;;;10.15;4.97;;;13.80;79.90;;;;;;5113264;28;20028;-69
2022/05/21 01:53:46;;;;;;;9.48;4.15;;;13.80;79.90;;;;;;5113194;28;20020;-69
2022/05/21 01:56:13;;;;;;;10.02;5.10;;;13.80;79.80;;;;;;5113149;28;20032;-69
2022/05/21 01:58:40;;;;;;;9.35;4.43;;;13.80;79.90;;;;;;5113177;28;20060;-69
2022/05/21 02:01:07;;;;;;;9.70;4.88;;;13.80;80.10;;;;;;5113167;28;20034;-69
2022/05/21 02:03:32;;;;;;;12.82;5.13;;;13.80;80.20;;;;;;5113073;28;20086;-69
2022/05/21 02:05:58;;;;;;;9.18;4.80;;;13.80;80.10;;;;;;5112046;28;20044;-70
2022/05/21 02:08:24;;;;;;;8.90;5.10;;;13.80;79.90;;;;;;5113065;28;20020;-69
2022/05/21 02:10:51;;;;;;;11.52;4.90;;;13.80;79.70;;;;;;5113056;28;20024;-69
2022/05/21 02:13:35;;;;;;;10.23;4.60;;;13.80;80.00;;;;;;5113075;28;20016;-69
2022/05/21 02:16:01;;;;;;;15.95;5.22;;;13.80;80.00;;;;;;5113085;28;20016;-69
2022/05/21 02:18:27;;;;;;;7.35;3.50;;;13.80;80.00;;;;;;5112970;28;20065;-69
2022/05/21 02:20:54;;;;;;;6.63;3.88;;;13.80;80.00;;;;;;5112943;28;20032;-69
2022/05/21 02:23:20;;;;;;;10.38;4.85;;;13.80;80.50;;;;;;5112983;28;20020;-69
2022/05/21 02:25:46;;;;;;;9.48;4.55;;;13.70;80.60;;;;;;5112764;28;20074;-69
2022/05/21 02:28:15;;;;;;;9.48;4.45;;;13.70;80.30;;;;;;5112796;28;20039;-69
2022/05/21 02:30:42;;;;;;;10.93;4.85;;;13.80;80.20;;;;;;5116586;28;20087;-69
2022/05/21 02:33:08;;;;;;;10.25;4.88;;;13.80;80.20;;;;;;5116638;28;20065;-69
2022/05/21 02:35:33;;;;;;;9.85;4.95;;;13.80;80.00;;;;;;5116557;28;20036;-68
2022/05/21 02:40:44;;;;;;;11.55;5.28;;;13.70;80.50;;;;;;5116745;28;20091;-68
2022/05/21 02:43:09;;;;;;;10.75;5.28;;;13.80;80.60;;;;;;5115338;28;20032;-68
2022/05/21 02:45:35;;;;;;;15.30;5.70;;;13.80;80.60;;;;;;5115434;28;20104;-68
2022/05/21 02:48:01;;;;;;;11.35;5.82;;;13.80;80.70;;;;;;5116366;28;20111;-68
2022/05/21 02:50:33;;;;;;;10.40;5.55;;;13.80;80.80;;;;;;5116307;28;20024;-68
2022/05/21 02:53:04;;;;;;;12.73;5.78;;;13.80;80.80;;;;;;5116454;28;20020;-68
2022/05/21 02:55:29;;;;;;;12.57;5.68;;;13.80;80.90;;;;;;5115417;28;20024;-68
2022/05/21 02:57:56;;;;;;;14.07;6.40;;;13.80;80.70;;;;;;5116157;28;20039;-69
2022/05/21 03:00:28;;;;;;;11.75;6.22;;;13.80;81.60;;;;;;5116121;28;20048;-68
2022/05/21 03:02:54;;;;;;;9.00;5.65;;;13.90;80.80;;;;;;5116061;28;20047;-69
2022/05/21 03:05:20;;;;;;;13.73;6.32;;;13.90;80.70;;;;;;5116001;28;20087;-69
2022/05/21 03:07:49;;;;;;;13.52;6.40;;;13.90;80.50;;;;;;5115893;28;20028;-69
2022/05/21 03:10:21;;;;;;;11.02;6.15;;;13.90;80.50;;;;;;5115901;28;20020;-69
2022/05/21 03:12:56;;;;;;;10.13;6.20;;;13.90;80.50;;;;;;5115942;28;20379;-69
2022/05/21 03:15:29;;;;;;;12.73;6.25;;;13.80;80.60;;;;;;5115880;28;20044;-69
2022/05/21 03:17:54;;;;;;;12.45;6.20;;;13.80;80.70;;;;;;5115785;28;20498;-69
2022/05/21 03:20:21;;;;;;;16.05;6.43;;;13.80;81.00;;;;;;5115740;28;20036;-69
2022/05/21 03:22:48;;;;;;;15.40;6.60;;;13.80;81.20;;;;;;5115784;28;20028;-69
2022/05/21 03:25:14;;;;;;;11.93;5.97;;;13.80;81.40;;;;;;5115463;28;20383;-69
2022/05/21 03:27:41;;;;;;;14.27;5.93;;;13.80;81.30;;;;;;5115504;28;20020;-69
2022/05/21 03:30:10;;;;;;;13.27;5.78;;;13.70;81.20;;;;;;5115547;28;20024;-68
2022/05/21 03:32:36;;;;;;;12.02;5.65;;;13.80;81.30;;;;;;5115489;28;20028;-69
2022/05/21 03:35:02;;;;;;;11.32;5.60;;;13.70;81.20;;;;;;5115581;28;20024;-69
2022/05/21 03:37:28;;;;;;;12.63;5.38;;;13.80;81.10;;;;;;5115346;28;20024;-69
2022/05/21 03:39:54;;;;;;;12.20;5.90;;;13.80;81.10;;;;;;5114921;28;20020;-69
2022/05/21 03:42:19;;;;;;;14.05;5.28;;;13.80;81.10;;;;;;5115262;28;20080;-69
2022/05/21 03:44:46;;;;;;;11.25;5.72;;;13.70;81.10;;;;;;5115212;28;20116;-69
2022/05/21 03:47:12;;;;;;;12.68;5.35;;;13.70;81.10;;;;;;5115220;28;20024;-69
2022/05/21 03:49:38;;;;;;;10.77;5.55;;;13.70;81.00;;;;;;5114289;28;20073;-69
2022/05/21 03:52:06;;;;;;;16.05;5.60;;;13.70;81.00;;;;;;5115096;28;20032;-69
2022/05/21 03:54:32;;;;;;;17.45;5.80;;;13.70;81.10;;;;;;5115071;28;20110;-69
2022/05/21 03:56:57;;;;;;;13.40;5.75;;;13.70;81.10;;;;;;5115060;28;20028;-69
2022/05/21 03:59:23;;;;;;;14.40;5.85;;;13.70;81.10;;;;;;5113983;28;20087;-69
2022/05/21 04:01:49;;;;;;;15.68;6.43;;;13.70;81.10;;;;;;5114864;28;20035;-69
2022/05/21 04:04:15;;;;;;;11.45;5.22;;;13.60;81.30;;;;;;5114842;28;20080;-69
2022/05/21 04:06:40;;;;;;;13.88;5.65;;;13.60;81.60;;;;;;5113895;28;20028;-69
2022/05/21 04:09:06;;;;;;;16.20;5.80;;;13.70;81.60;;;;;;5114779;28;20016;-69
2022/05/21 04:11:32;;;;;;;13.45;5.88;;;13.60;81.90;;;;;;5114738;28;20055;-68
2022/05/21 04:13:58;;;;;;;13.60;5.75;;;13.60;81.90;;;;;;5114678;28;20091;-68
2022/05/21 04:16:23;;;;;;;13.35;6.10;;;13.70;81.90;;;;;;5114655;28;20061;-68
2022/05/21 04:18:49;;;;;;;14.02;5.68;;;13.70;81.80;;;;;;5114557;28;20096;-68
2022/05/21 04:21:15;;;;;;;16.63;6.63;;;13.60;82.70;;;;;;5113496;28;20032;-68
2022/05/21 04:23:40;;;;;;;15.13;5.93;;;13.60;82.30;;;;;;5114417;28;20058;-68
2022/05/21 04:26:06;;;;;;;10.18;5.95;;;13.70;82.40;;;;;;5114285;28;20052;-69
2022/05/21 04:28:34;;;;;;;15.05;6.80;;;13.60;82.50;;;;;;5114358;28;20043;-69
2022/05/21 04:31:00;;;;;;;17.13;7.05;;;13.70;83.20;;;;;;5113295;28;20028;-69
2022/05/21 04:33:25;;;;;;;14.25;6.28;;;13.70;82.40;;;;;;5114328;28;20028;-68
2022/05/21 04:38:35;;;;;;;19.92;6.90;;;13.70;82.70;;;;;;5114427;28;20039;-68
2022/05/21 04:41:01;;;;;;;13.52;6.38;;;13.70;82.80;;;;;;5113201;28;20036;-68
2022/05/21 04:43:26;;;;;;;13.75;6.43;;;13.70;82.90;;;;;;5114037;28;20048;-68
2022/05/21 04:45:55;;;;;;;16.55;6.80;;;13.70;82.80;;;;;;5114072;28;20028;-70
2022/05/21 04:48:20;;;;;;;16.08;6.78;;;13.60;83.90;;;;;;5113007;28;20046;-68
2022/05/21 04:50:46;;;;;;;13.93;6.63;;;13.70;83.00;;;;;;5113792;28;20024;-68
2022/05/21 04:53:12;;;;;;;14.73;6.63;;;13.80;82.90;;;;;;5113442;28;20031;-68
2022/05/21 04:55:37;;;;;;;15.38;6.63;;;13.70;82.80;;;;;;5113951;28;20036;-68
2022/05/21 04:58:03;;;;;;;14.45;6.05;;;13.80;83.50;;;;;;5113913;28;20028;-68
2022/05/21 05:00:29;;;;;;;15.82;6.35;;;13.80;82.50;;;;;;5112808;28;20092;-69
2022/05/21 05:02:55;;;;;;;15.35;6.78;;;13.80;83.40;;;;;;5113722;28;20024;-69
2022/05/21 05:05:21;;;;;;;11.43;6.03;;;13.80;82.70;;;;;;5113892;28;20031;-69
2022/05/21 05:07:47;;;;;;;16.73;7.40;;;13.80;82.70;;;;;;5113877;28;20028;-69
2022/05/21 05:10:12;;;;;;;14.82;6.45;;;13.80;82.90;;;;;;5112749;28;20028;-68
2022/05/21 05:12:38;;;;;;;15.13;6.60;;;13.80;83.10;;;;;;5112765;28;20028;-69
2022/05/21 05:15:04;;;;;;;13.60;6.90;;;13.80;82.90;;;;;;5113646;28;20028;-69
2022/05/21 05:17:30;;;;;;;13.07;7.03;;;13.90;82.90;;;;;;5113641;28;20027;-69
2022/05/21 05:19:56;;;;;;;19.65;6.93;;;13.90;83.30;;;;;;5113574;28;20107;-70
2022/05/21 05:22:22;;;;;;;13.52;6.32;;;13.90;83.00;;;;;;5113502;28;20119;-69
2022/05/21 05:24:48;;;;;;;11.93;6.05;;;14.00;82.70;;;;;;5113326;28;20048;-69
2022/05/21 05:27:14;;;;;;;14.27;5.68;;;14.00;82.40;;;;;;5112595;28;20028;-70
2022/05/21 05:29:40;;;;;;;16.65;6.70;;;13.90;82.40;;;;;;5113394;28;20057;-67
2022/05/21 05:32:07;;;;;;;13.63;6.13;;;14.00;82.90;;;;;;5113434;28;20032;-67
2022/05/21 05:34:32;;;;;;;12.18;6.55;;;14.00;82.30;;;;;;5113398;28;20044;-67
2022/05/21 05:36:58;;;;;;;18.85;7.07;;;14.10;82.50;;;;;;5113415;28;20054;-67
2022/05/21 05:39:24;;;;;;;18.73;6.90;;;14.10;82.60;;;;;;5113380;28;20107;-66
2022/05/21 05:41:51;;;;;;;16.33;6.97;;;14.10;82.20;;;;;;5113275;28;20032;-66
2022/05/21 05:44:17;;;;;;;13.52;7.00;;;14.20;82.20;;;;;;5113326;28;20084;-67
2022/05/21 05:46:43;;;;;;;15.60;7.05;;;14.20;82.60;;;;;;5113286;28;20082;-67
2022/05/21 05:49:08;;;;;;;13.45;6.55;;;14.20;82.80;;;;;;5113418;28;20505;-67
2022/05/21 05:51:34;;;;;;;14.52;6.50;;;14.20;82.40;;;;;;5113249;28;20016;-67
2022/05/21 05:54:00;;;;;;;17.92;7.70;;;14.20;82.40;;;;;;5113243;28;20016;-66
2022/05/21 05:56:25;;;;;;;13.55;7.65;;;14.20;82.60;;;;;;5113201;28;20047;-66
2022/05/21 06:01:35;;;;;;;20.08;8.57;;;14.30;82.60;;;;;;5113226;28;20066;-66
2022/05/21 06:04:01;;;;;;;18.67;8.07;;;14.30;82.90;;;;;;5114861;28;20032;-66
2022/05/21 06:06:28;;;;;;;22.70;8.15;;;14.30;82.10;;;;;;5117172;28;20031;-66
2022/05/21 06:08:54;;;;;;;20.67;8.45;;;14.30;82.90;;;;;;5117256;28;20046;-66
2022/05/21 06:11:20;;;;;;;22.35;9.40;;;14.30;82.30;;;;;;5117136;28;20050;-66
2022/05/21 06:13:46;;;;;;;25.33;10.02;;;14.30;82.20;;;;;;5117060;28;20474;-66
2022/05/21 06:16:12;;;;;;;26.55;9.73;;;14.40;83.00;;;;;;5117008;28;20106;-66
2022/05/21 06:18:38;;;;;;;17.88;9.07;;;14.40;82.80;;;;;;5115965;28;20032;-66
2022/05/21 06:21:05;;;;;;;17.70;8.35;;;14.50;82.30;;;;;;5116884;28;20042;-66
2022/05/21 06:23:32;;;;;;;21.75;9.07;;;14.60;82.20;;;;;;5116763;28;20035;-66
2022/05/21 06:26:00;;;;;;;15.90;8.38;;;14.60;81.90;;;;;;5116675;28;20048;-67
2022/05/21 06:28:26;;;;;;;21.10;8.75;;;14.60;81.50;;;;;;5116751;28;20027;-66
2022/05/21 06:30:52;;;;;;;17.08;7.78;;;14.70;81.60;;;;;;5116772;28;20153;-66
2022/05/21 06:33:20;;;;;;;20.42;9.30;;;14.80;81.30;;;;;;5115672;28;20032;-66
2022/05/21 06:35:47;;;;;;;21.70;9.15;;;14.80;81.50;;;;;;5115592;28;20020;-66
2022/05/21 06:38:13;;;;;;;14.70;8.07;;;14.90;81.30;;;;;;5116560;28;20032;-66
2022/05/21 06:40:39;;;;;;;20.95;8.85;;;14.90;81.30;;;;;;5116653;28;20088;-66
2022/05/21 06:43:05;;;;;;;19.75;9.35;;;15.00;81.90;;;;;;5116514;28;20020;-65
2022/05/21 06:45:32;;;;;;;20.83;9.15;;;15.10;81.20;;;;;;5116420;28;20024;-66
2022/05/21 06:48:03;;;;;;;18.60;8.32;;;15.10;80.80;;;;;;5116403;28;20446;-66
2022/05/21 06:50:29;;;;;;;19.67;8.82;;;15.10;80.10;;;;;;5116327;28;20020;-67
2022/05/21 06:52:55;;;;;;;20.02;8.50;;;15.10;80.10;;;;;;5116296;28;20076;-67
2022/05/21 06:55:21;;;;;;;23.95;9.02;;;15.10;80.10;;;;;;5115339;28;20034;-67
2022/05/21 06:57:48;;;;;;;24.35;9.07;;;15.10;80.10;;;;;;5116251;28;20084;-66
2022/05/21 07:00:14;;;;;;;17.77;8.63;;;15.10;80.90;;;;;;5116144;28;20039;-67
2022/05/21 07:02:40;;;;;;;21.60;9.00;;;15.20;80.50;;;;;;5116165;28;20036;-67
2022/05/21 07:07:50;;;;;;;17.13;8.75;;;15.20;79.10;;;;;;5116130;28;20058;-67
2022/05/21 07:10:22;;;;;;;18.55;9.98;;;15.20;79.30;;;;;;5116083;28;20035;-67
2022/05/21 07:12:48;;;;;;;22.02;9.27;;;15.10;79.70;;;;;;5115981;28;20028;-67
2022/05/21 07:15:15;;;;;;;21.13;9.38;;;15.00;79.70;;;;;;5115046;28;20069;-67
2022/05/21 07:17:41;;;;;;;19.45;9.38;;;15.00;79.80;;;;;;5115862;28;20028;-67
2022/05/21 07:20:10;;;;;;;19.02;8.77;;;15.00;79.80;;;;;;5115715;28;20016;-67
2022/05/21 07:22:40;;;;;;;21.25;9.27;;;15.00;80.20;;;;;;5114622;28;20115;-67
2022/05/21 07:25:06;;;;;;;23.02;10.00;;;15.10;80.50;;;;;;5115355;28;20055;-67
2022/05/21 07:27:31;;;;;;;17.52;8.55;;;15.20;80.60;;;;;;5115706;28;20028;-67
2022/05/21 07:29:57;;;;;;;16.83;8.30;;;15.30;79.40;;;;;;5115522;28;20090;-67
2022/05/21 07:32:24;;;;;;;21.73;8.48;;;15.40;79.20;;;;;;5115640;28;20043;-67
2022/05/21 07:34:59;;;;;;;16.30;7.70;;;15.50;78.80;;;;;;5115555;28;20046;-67
2022/05/21 07:37:24;;;;;;;21.10;7.50;;;15.60;77.90;;;;;;5115417;28;20024;-67
2022/05/21 07:39:50;;;;;;;19.13;8.93;;;15.60;78.00;;;;;;5115394;28;20070;-67
2022/05/21 07:42:16;;;;;;;15.27;6.97;;;15.70;78.60;;;;;;5115311;28;20028;-67
2022/05/21 07:44:42;;;;;;;14.95;7.28;;;15.80;77.00;;;;;;5115353;28;20084;-67
2022/05/21 07:47:08;;;;;;;15.45;7.50;;;15.90;76.80;;;;;;5115218;28;20024;-67
2022/05/21 07:49:33;;;;;;;19.63;7.55;;;15.90;76.50;;;;;;5115199;28;20081;-66
2022/05/21 07:51:59;;;;;;;18.88;6.97;;;16.00;77.00;;;;;;5114307;28;20028;-67
2022/05/21 07:54:26;;;;;;;12.55;6.28;;;16.10;76.60;;;;;;5115087;28;20024;-68
2022/05/21 07:56:52;;;;;;;17.13;7.53;;;16.10;74.60;;;;;;5115214;28;20027;-67
2022/05/21 07:59:18;;;;;;;18.92;6.57;;;16.10;75.50;;;;;;5115077;28;20024;-68
2022/05/21 08:01:43;;;;;;;15.80;7.30;;;16.10;74.80;;;;;;5114986;28;20027;-68
2022/05/21 08:04:09;;;;;;;18.95;8.98;;;16.00;74.80;;;;;;5114867;28;20383;-67
2022/05/21 08:06:35;;;;;;;14.02;6.38;;;16.00;75.20;;;;;;5114909;28;20084;-67
2022/05/21 08:09:01;;;;;;;14.32;6.72;;;16.00;74.90;;;;;;5114831;28;20034;-67
2022/05/21 08:11:27;;;;;;;13.23;5.15;;;16.10;75.20;;;;;;5114816;28;20084;-67
2022/05/21 08:13:53;;;;;;;13.38;5.07;;;16.20;74.10;;;;;;5113723;28;20032;-66
2022/05/21 08:16:21;;;;;;;12.63;5.45;;;16.10;72.50;;;;;;5114685;28;20024;-67
2022/05/21 08:18:47;;;;;;;15.48;5.40;;;16.00;72.50;;;;;;5114681;28;20020;-67
2022/05/21 08:21:13;;;;;;;14.18;6.07;;;16.00;73.50;;;;;;5114649;28;20031;-67
2022/05/21 08:29:07;;;;;;;11.68;4.88;;;16.20;73.60;;;;;;5114477;28;20050;-67
2022/05/21 08:31:33;;;;;;;12.88;5.07;;;16.40;74.40;;;;;;5114477;28;20487;-67
2022/05/21 08:34:00;;;;;;;11.90;4.75;;;16.50;73.40;;;;;;5114405;28;20058;-67
2022/05/21 08:36:26;;;;;;;14.18;4.47;;;16.70;73.70;;;;;;5114383;28;20020;-68
2022/05/21 08:38:52;;;;;;;9.90;4.40;;;16.70;70.90;;;;;;5114363;28;20040;-67
2022/05/21 08:41:17;;;;;;;11.15;4.90;;;16.70;71.40;;;;;;5114245;28;20440;-67
2022/05/21 08:43:55;;;;;;;13.23;5.90;;;16.70;71.50;;;;;;5114172;28;20084;-67
2022/05/21 08:46:46;;;;;;;15.43;6.05;;;16.70;71.20;;;;;;5114158;28;20382;-68
2022/05/21 08:49:19;;;;;;;14.27;6.30;;;16.60;71.20;;;;;;5114177;28;20016;-67
2022/05/21 08:51:50;;;;;;;14.68;6.40;;;16.50;72.10;;;;;;5114181;28;20035;-66
2022/05/21 08:54:23;;;;;;;15.07;6.43;;;16.40;72.00;;;;;;5114055;28;20028;-67
2022/05/21 08:56:50;;;;;;;16.35;5.45;;;16.40;73.10;;;;;;5114238;28;20070;-67
2022/05/21 08:59:19;;;;;;;15.48;5.90;;;16.50;73.00;;;;;;5114168;28;20024;-67
2022/05/21 09:01:44;;;;;;;11.75;5.65;;;16.70;73.20;;;;;;5114075;28;20079;-67
2022/05/21 09:04:12;;;;;;;14.93;5.65;;;16.70;72.40;;;;;;5113942;28;20058;-67
2022/05/21 09:06:54;;;;;;;13.45;4.88;;;16.80;72.70;;;;;;5113738;28;20020;-67
2022/05/21 09:10:00;;;;;;;9.73;4.97;;;16.70;69.40;;;;;;5113932;28;20047;-66
2022/05/21 09:12:33;;;;;;;14.52;5.72;;;16.70;70.80;;;;;;5113754;28;20050;-67
2022/05/21 09:15:03;;;;;;;13.70;5.70;;;16.60;71.40;;;;;;5113735;28;20046;-68
2022/05/21 09:17:28;;;;;;;18.45;5.63;;;16.60;71.60;;;;;;5113654;28;20084;-68
2022/05/21 09:19:57;;;;;;;15.18;4.80;;;16.60;71.00;;;;;;5113628;28;20024;-67
2022/05/21 09:22:24;;;;;;;12.65;4.78;;;16.70;70.20;;;;;;5112517;28;20028;-66
2022/05/21 09:24:55;;;;;;;13.07;4.72;;;16.60;70.40;;;;;;5113352;28;20044;-67
2022/05/21 09:27:32;;;;;;;10.32;4.63;;;16.60;69.80;;;;;;5113565;28;20020;-66
2022/05/21 09:30:23;;;;;;;12.05;4.75;;;16.50;70.30;;;;;;5113463;28;20020;-66
2022/05/21 09:32:52;;;;;;;14.10;6.30;;;16.50;70.00;;;;;;5113521;28;20088;-64
2022/05/21 09:35:21;;;;;;;11.55;5.53;;;16.50;72.30;;;;;;5113427;28;20048;-64
2022/05/21 09:37:47;;;;;;;12.15;5.50;;;16.60;72.10;;;;;;5112952;28;20024;-63
2022/05/21 09:40:29;;;;;;;19.92;5.68;;;16.50;70.70;;;;;;5113389;28;20042;-64
2022/05/21 09:45:41;;;;;;;16.30;6.10;;;16.60;71.40;;;;;;5113494;28;20044;-66
2022/05/21 09:48:07;;;;;;;15.30;6.03;;;16.70;71.40;;;;;;5113335;28;20024;-65
2022/05/21 09:50:52;;;;;;;15.02;5.85;;;16.70;71.30;;;;;;5113266;28;20028;-65
2022/05/21 09:53:31;;;;;;;12.50;5.80;;;16.70;70.30;;;;;;5113374;28;20080;-66
2022/05/21 09:56:34;;;;;;;13.13;6.13;;;16.80;71.20;;;;;;5112183;28;20088;-65
2022/05/21 09:59:13;;;;;;;10.27;5.05;;;17.00;72.30;;;;;;5071077;28;20059;-66
2022/05/21 10:01:44;;;;;;;10.20;4.63;;;17.10;70.30;;;;;;5113328;28;20031;-65
2022/05/21 10:04:28;;;;;;;9.35;4.03;;;17.10;69.40;;;;;;5113168;28;20032;-66
2022/05/21 10:10:58;;;;;;;11.88;4.28;;;17.20;68.80;;;;;;5112240;28;20095;-66
2022/05/21 10:12:51;;;;;;;12.63;4.93;;;17.20;68.70;;;;;;5113326;28;20043;-65
2022/05/21 10:15:21;;;;;;;15.98;6.47;;;17.30;69.70;;;;;;5113068;28;20051;-66
2022/05/21 10:18:01;;;;;;;14.27;7.15;;;17.30;68.90;;;;;;5113119;28;20024;-64
2022/05/21 10:20:36;;;;;;;15.18;7.25;;;17.40;71.10;;;;;;5113044;28;20032;-64
2022/05/21 10:23:39;;;;;;;21.05;7.38;;;17.60;71.70;;;;;;5112909;28;20048;-65
2022/05/21 10:26:10;;;;;;;;;;;17.90;69.20;;;;;;5113154;28;20040;-65
2022/05/21 10:28:57;;;;;;;12.05;5.40;;;18.00;68.30;;;;;;5112941;28;19904;-65
2022/05/21 10:31:33;;;;;;;13.50;5.60;;;18.10;66.10;;;;;;5112990;28;20088;-65
2022/05/21 10:34:08;;;;;;;9.65;3.80;;;18.10;66.50;;;;;;5112947;28;20084;-65
2022/05/21 10:36:58;;;;;;;15.65;3.30;;;18.10;66.50;;;;;;5112816;28;20051;-65
2022/05/21 10:40:07;;;;;;;11.48;3.75;;;18.20;67.20;;;;;;5112942;28;20036;-65
2022/05/21 10:42:43;;;;;;;11.27;2.90;;;18.40;65.20;;;;;;5112726;28;20028;-65
2022/05/21 10:45:09;;;;;;;8.10;2.72;;;18.40;66.10;;;;;;5112830;28;20020;-65
2022/05/21 10:47:55;;;;;;;8.75;3.05;;;18.50;66.10;;;;;;5112821;28;20046;-65
2022/05/21 10:50:33;;;;;;;9.20;3.10;;;18.50;64.00;;;;;;5114312;28;20043;-65
2022/05/21 10:53:07;;;;;;;7.32;2.63;;;18.40;62.90;;;;;;5116501;28;20092;-65
2022/05/21 10:56:02;;;;;;;10.63;3.00;;;18.40;62.10;;;;;;5116247;28;20039;-65
2022/05/21 10:58:35;;;;;;;6.82;2.60;;;18.50;63.20;;;;;;5116362;28;20052;-65
2022/05/21 11:01:50;;;;;;;7.45;2.92;;;18.40;60.90;;;;;;5115310;28;20088;-65
2022/05/21 11:04:42;;;;;;;8.07;2.72;;;18.40;61.80;;;;;;5079909;28;20043;-65
2022/05/21 11:07:16;;;;;;;7.70;2.37;;;18.30;60.40;;;;;;5116048;28;20028;-64
2022/05/21 11:10:11;;;;;;;4.90;2.20;;;18.20;60.70;;;;;;5114958;28;20056;-65
2022/05/21 11:12:45;;;;;;;5.55;2.55;;;18.20;60.20;;;;;;5115995;28;20019;-64
2022/05/21 11:15:54;;;;;;;8.65;3.35;;;18.20;61.20;;;;;;5115894;28;20050;-65
2022/05/21 11:18:31;;;;;;;11.00;4.53;;;18.20;62.20;;;;;;5100534;28;20523;-65
2022/05/21 11:21:18;;;;;;;10.85;5.50;;;18.10;63.60;;;;;;5115840;28;20050;-65
2022/05/21 11:24:10;;;;;;;11.35;4.10;;;18.00;65.20;;;;;;5115693;28;20079;-65
2022/05/21 11:26:44;;;;;;;8.73;3.77;;;17.80;64.80;;;;;;5115845;28;20099;-65
2022/05/21 11:29:09;;;;;;;9.18;3.97;;;17.80;65.00;;;;;;5115549;28;20246;-65
2022/05/21 11:37:22;;;;;;;9.73;4.40;;;17.80;65.30;;;;;;5115717;28;20043;-65
2022/05/21 11:39:52;;;;;;;12.15;5.10;;;17.90;66.00;;;;;;5115466;28;20024;-65
2022/05/21 11:42:24;;;;;;;12.15;4.50;;;18.20;66.60;;;;;;5115337;28;20502;-65
2022/05/21 11:45:12;;;;;;;11.80;4.35;;;18.30;65.80;;;;;;5115443;28;20120;-65
2022/05/21 11:47:44;;;;;;;9.25;5.25;;;18.30;63.30;;;;;;5115393;28;20020;-65
2022/05/21 11:50:15;;;;;;;;;;;18.20;63.30;;;;;;5115800;28;20075;-65
2022/05/21 11:52:41;;;;;;;11.48;4.22;;;18.20;63.70;;;;;;5115142;28;19908;-65
2022/05/21 11:55:15;;;;;;;13.88;4.75;;;18.20;64.40;;;;;;5115138;28;20027;-65
2022/05/21 11:57:49;;;;;;;12.15;3.60;;;18.40;65.00;;;;;;5115125;28;20086;-65
2022/05/21 12:00:15;;;;;;;8.48;3.75;;;18.60;64.60;;;;;;5113887;28;20043;-65
2022/05/21 12:02:59;;;;;;;10.02;3.97;;;18.70;63.50;;;;;;5114750;28;20032;-65
2022/05/21 12:08:22;;;;;;;13.10;5.47;;;18.70;62.40;;;;;;5114915;28;20028;-65
2022/05/21 12:11:02;;;;;;;9.18;4.45;;;18.70;64.00;;;;;;5114950;28;20024;-65
2022/05/21 12:13:33;;;;;;;11.52;3.80;;;18.90;63.90;;;;;;5114716;28;20017;-65
2022/05/21 12:16:20;;;;;;;10.65;3.50;;;19.10;62.70;;;;;;5114699;28;20058;-65
2022/05/21 12:18:52;;;;;;;6.57;2.40;;;19.30;59.30;;;;;;5114531;28;20024;-65
2022/05/21 12:21:30;;;;;;;7.67;3.40;;;19.30;59.60;;;;;;5114573;28;20028;-65
2022/05/21 12:23:55;;;;;;;9.25;2.15;;;19.40;60.00;;;;;;5114471;28;20032;-65
2022/05/21 12:26:26;;;;;;;4.15;2.30;;;19.40;57.90;;;;;;5114245;28;20100;-65
2022/05/21 12:29:09;;;;;;;7.55;1.92;;;19.30;57.20;;;;;;5114539;28;20024;-65
2022/05/21 12:31:43;;;;;;;6.57;1.80;;;19.30;56.10;;;;;;5114484;28;20058;-65
2022/05/21 12:34:29;;;;;;;10.48;2.33;;;19.20;56.80;;;;;;5114326;28;20026;-65
2022/05/21 12:37:30;;;;;;;9.75;2.33;;;19.20;57.50;;;;;;5114376;28;20032;-65
2022/05/21 12:40:01;;;;;;;6.15;2.17;;;19.30;58.70;;;;;;5114244;28;20040;-65
2022/05/21 12:42:45;;;;;;;7.93;2.55;;;19.30;59.10;;;;;;5114263;28;20024;-65
2022/05/21 12:45:22;;;;;;;8.85;2.40;;;19.40;58.50;;;;;;5114207;28;20027;-65
2022/05/21 12:47:48;;;;;;;5.80;2.30;;;19.50;58.80;;;;;;5114155;28;20020;-65
2022/05/21 12:50:21;;;;;;;7.47;3.10;;;19.40;59.20;;;;;;5114087;28;20087;-64
2022/05/21 12:52:49;;;;;;;6.50;2.40;;;19.50;58.50;;;;;;5114100;28;20054;-65
2022/05/21 12:55:25;;;;;;;10.00;2.88;;;19.50;58.80;;;;;;5113974;28;20096;-65
2022/05/21 12:57:54;;;;;;;5.75;2.40;;;19.50;58.80;;;;;;5113990;28;20035;-65
2022/05/21 13:00:22;;;;;;;7.15;2.28;;;19.60;59.20;;;;;;5113798;28;20072;-65
2022/05/21 13:02:52;;;;;;;7.55;2.42;;;19.70;59.10;;;;;;5113756;28;20032;-65
2022/05/21 13:05:19;;;;;;;4.45;2.10;;;19.60;56.70;;;;;;5113769;28;20016;-65
2022/05/21 13:07:45;;;;;;;5.82;2.40;;;19.70;54.80;;;;;;5113743;28;20030;-65
2022/05/21 13:10:20;;;;;;;8.55;2.40;;;19.80;58.00;;;;;;5113695;28;20044;-65
2022/05/21 13:12:53;;;;;;;7.18;2.80;;;20.00;53.90;;;;;;5113105;28;20030;-65
2022/05/21 13:15:29;;;;;;;7.10;2.78;;;19.90;53.00;;;;;;5113767;28;20087;-65
2022/05/21 13:18:01;;;;;;;6.43;3.00;;;19.80;55.10;;;;;;5113742;28;20020;-65
2022/05/21 13:20:34;;;;;;;6.93;2.53;;;19.80;56.40;;;;;;5113811;28;20028;-65
2022/05/21 13:23:19;;;;;;;7.13;2.30;;;19.80;55.20;;;;;;5113521;28;20277;-65
2022/05/21 13:25:53;;;;;;;6.22;2.38;;;19.70;54.40;;;;;;5113315;28;20055;-65
2022/05/21 13:28:21;;;;;;;6.55;2.45;;;19.70;55.50;;;;;;5113469;28;20017;-65
2022/05/21 13:30:49;;;;;;;4.65;1.92;;;19.60;55.60;;;;;;5113458;28;20077;-65
2022/05/21 13:33:36;;;;;;;7.05;2.22;;;19.70;55.50;;;;;;5113481;28;20042;-65